sensor_id;sensor_type;location;lat;lon;timestamp;P1;durP1;ratioP1;P2;durP2;ratioP2
71963;SDS011;59834;52.124;5.422;2023-05-23T00:01:16;7.85;;;3.40;;
71963;SDS011;59834;52.124;5.422;2023-05-23T00:03:47;9.90;;;4.50;;
71963;SDS011;59834;52.124;5.422;2023-05-23T00:06:18;9.63;;;4.73;;
71963;SDS011;59834;52.124;5.422;2023-05-23T00:08:46;11.13;;;5.60;;
71963;SDS011;59834;52.124;5.422;2023-05-23T00:11:14;14.35;;;7.05;;
71963;SDS011;59834;52.124;5.422;2023-05-23T00:13:44;18.42;;;5.53;;
71963;SDS011;59834;52.124;5.422;2023-05-23T00:16:16;12.43;;;4.68;;
71963;SDS011;59834;52.124;5.422;2023-05-23T00:18:44;14.93;;;5.90;;
71963;SDS011;59834;52.124;5.422;2023-05-23T00:21:12;13.02;;;5.10;;
71963;SDS011;59834;52.124;5.422;2023-05-23T00:23:45;11.23;;;5.40;;
71963;SDS011;59834;52.124;5.422;2023-05-23T00:26:13;12.15;;;5.57;;
71963;SDS011;59834;52.124;5.422;2023-05-23T00:28:43;9.27;;;4.93;;
71963;SDS011;59834;52.124;5.422;2023-05-23T00:31:14;10.27;;;4.93;;
71963;SDS011;59834;52.124;5.422;2023-05-23T00:33:46;11.45;;;4.88;;
71963;SDS011;59834;52.124;5.422;2023-05-23T00:36:13;12.05;;;4.93;;
71963;SDS011;59834;52.124;5.422;2023-05-23T00:38:41;8.55;;;4.50;;
71963;SDS011;59834;52.124;5.422;2023-05-23T00:41:14;7.40;;;4.63;;
71963;SDS011;59834;52.124;5.422;2023-05-23T00:43:50;9.97;;;5.57;;
71963;SDS011;59834;52.124;5.422;2023-05-23T00:46:20;14.90;;;6.43;;
71963;SDS011;59834;52.124;5.422;2023-05-23T00:48:47;12.75;;;4.35;;
71963;SDS011;59834;52.124;5.422;2023-05-23T00:51:16;7.80;;;4.00;;
71963;SDS011;59834;52.124;5.422;2023-05-23T00:53:46;8.25;;;4.18;;
71963;SDS011;59834;52.124;5.422;2023-05-23T00:56:16;9.97;;;4.20;;
71963;SDS011;59834;52.124;5.422;2023-05-23T00:58:44;8.35;;;3.90;;
71963;SDS011;59834;52.124;5.422;2023-05-23T01:01:10;9.30;;;3.42;;
71963;SDS011;59834;52.124;5.422;2023-05-23T01:03:37;5.03;;;3.10;;
71963;SDS011;59834;52.124;5.422;2023-05-23T01:06:06;8.05;;;3.10;;
71963;SDS011;59834;52.124;5.422;2023-05-23T01:08:34;7.70;;;3.30;;
71963;SDS011;59834;52.124;5.422;2023-05-23T01:11:03;9.27;;;2.85;;
71963;SDS011;59834;52.124;5.422;2023-05-23T01:13:40;8.10;;;3.28;;
71963;SDS011;59834;52.124;5.422;2023-05-23T01:16:16;7.97;;;3.08;;
71963;SDS011;59834;52.124;5.422;2023-05-23T01:18:48;5.65;;;3.05;;
71963;SDS011;59834;52.124;5.422;2023-05-23T01:21:24;5.33;;;2.47;;
71963;SDS011;59834;52.124;5.422;2023-05-23T01:26:40;10.23;;;2.75;;
71963;SDS011;59834;52.124;5.422;2023-05-23T01:29:24;4.95;;;3.10;;
71963;SDS011;59834;52.124;5.422;2023-05-23T01:31:54;7.88;;;2.70;;
71963;SDS011;59834;52.124;5.422;2023-05-23T01:34:29;7.27;;;3.30;;
71963;SDS011;59834;52.124;5.422;2023-05-23T01:36:58;7.45;;;3.70;;
71963;SDS011;59834;52.124;5.422;2023-05-23T01:39:27;6.32;;;3.30;;
71963;SDS011;59834;52.124;5.422;2023-05-23T01:41:58;8.07;;;3.13;;
71963;SDS011;59834;52.124;5.422;2023-05-23T01:44:25;6.95;;;3.08;;
71963;SDS011;59834;52.124;5.422;2023-05-23T01:46:55;7.87;;;3.20;;
71963;SDS011;59834;52.124;5.422;2023-05-23T01:49:21;5.68;;;2.83;;
71963;SDS011;59834;52.124;5.422;2023-05-23T01:51:52;9.00;;;3.50;;
71963;SDS011;59834;52.124;5.422;2023-05-23T01:54:19;6.13;;;3.00;;
71963;SDS011;59834;52.124;5.422;2023-05-23T01:56:48;5.60;;;3.17;;
71963;SDS011;59834;52.124;5.422;2023-05-23T01:59:16;6.47;;;2.83;;
71963;SDS011;59834;52.124;5.422;2023-05-23T02:01:44;6.20;;;2.97;;
71963;SDS011;59834;52.124;5.422;2023-05-23T02:04:13;7.22;;;3.00;;
71963;SDS011;59834;52.124;5.422;2023-05-23T02:06:46;8.15;;;3.35;;
71963;SDS011;59834;52.124;5.422;2023-05-23T02:09:16;6.90;;;3.17;;
71963;SDS011;59834;52.124;5.422;2023-05-23T02:11:46;8.97;;;3.10;;
71963;SDS011;59834;52.124;5.422;2023-05-23T02:14:16;7.88;;;3.83;;
71963;SDS011;59834;52.124;5.422;2023-05-23T02:16:46;5.60;;;2.38;;
71963;SDS011;59834;52.124;5.422;2023-05-23T02:19:16;11.43;;;3.45;;
71963;SDS011;59834;52.124;5.422;2023-05-23T02:21:44;9.63;;;3.58;;
71963;SDS011;59834;52.124;5.422;2023-05-23T02:24:12;13.43;;;3.77;;
71963;SDS011;59834;52.124;5.422;2023-05-23T02:26:41;6.85;;;2.70;;
71963;SDS011;59834;52.124;5.422;2023-05-23T02:29:08;10.80;;;3.17;;
71963;SDS011;59834;52.124;5.422;2023-05-23T02:31:36;11.65;;;2.85;;
71963;SDS011;59834;52.124;5.422;2023-05-23T02:34:06;6.57;;;2.42;;
71963;SDS011;59834;52.124;5.422;2023-05-23T02:36:34;10.17;;;2.77;;
71963;SDS011;59834;52.124;5.422;2023-05-23T02:39:02;9.95;;;2.70;;
71963;SDS011;59834;52.124;5.422;2023-05-23T02:41:30;7.63;;;3.10;;
71963;SDS011;59834;52.124;5.422;2023-05-23T02:43:57;9.57;;;3.28;;
71963;SDS011;59834;52.124;5.422;2023-05-23T02:46:26;9.70;;;3.13;;
71963;SDS011;59834;52.124;5.422;2023-05-23T02:48:53;9.43;;;2.50;;
71963;SDS011;59834;52.124;5.422;2023-05-23T02:51:20;9.48;;;2.95;;
71963;SDS011;59834;52.124;5.422;2023-05-23T02:53:49;12.13;;;3.42;;
71963;SDS011;59834;52.124;5.422;2023-05-23T02:56:16;13.98;;;2.65;;
71963;SDS011;59834;52.124;5.422;2023-05-23T02:58:47;11.30;;;3.00;;
71963;SDS011;59834;52.124;5.422;2023-05-23T03:01:16;6.90;;;2.97;;
71963;SDS011;59834;52.124;5.422;2023-05-23T03:03:44;6.78;;;2.63;;
71963;SDS011;59834;52.124;5.422;2023-05-23T03:06:12;7.63;;;3.50;;
71963;SDS011;59834;52.124;5.422;2023-05-23T03:08:40;10.82;;;3.25;;
71963;SDS011;59834;52.124;5.422;2023-05-23T03:11:07;6.90;;;2.85;;
71963;SDS011;59834;52.124;5.422;2023-05-23T03:13:36;11.37;;;3.27;;
71963;SDS011;59834;52.124;5.422;2023-05-23T03:16:03;8.95;;;2.85;;
71963;SDS011;59834;52.124;5.422;2023-05-23T03:18:30;8.82;;;3.17;;
71963;SDS011;59834;52.124;5.422;2023-05-23T03:20:59;12.45;;;3.60;;
71963;SDS011;59834;52.124;5.422;2023-05-23T03:23:27;11.18;;;3.33;;
71963;SDS011;59834;52.124;5.422;2023-05-23T03:25:53;12.40;;;3.80;;
71963;SDS011;59834;52.124;5.422;2023-05-23T03:28:21;9.63;;;3.67;;
71963;SDS011;59834;52.124;5.422;2023-05-23T03:30:51;8.43;;;3.10;;
71963;SDS011;59834;52.124;5.422;2023-05-23T03:33:18;11.75;;;3.70;;
71963;SDS011;59834;52.124;5.422;2023-05-23T03:35:45;11.75;;;4.20;;
71963;SDS011;59834;52.124;5.422;2023-05-23T03:38:11;13.63;;;4.07;;
71963;SDS011;59834;52.124;5.422;2023-05-23T03:40:39;11.80;;;4.93;;
71963;SDS011;59834;52.124;5.422;2023-05-23T03:43:07;17.30;;;4.07;;
71963;SDS011;59834;52.124;5.422;2023-05-23T03:45:34;12.35;;;4.45;;
71963;SDS011;59834;52.124;5.422;2023-05-23T03:48:02;16.92;;;4.50;;
71963;SDS011;59834;52.124;5.422;2023-05-23T03:50:30;14.67;;;3.73;;
71963;SDS011;59834;52.124;5.422;2023-05-23T03:52:57;10.38;;;3.75;;
71963;SDS011;59834;52.124;5.422;2023-05-23T03:55:24;13.98;;;4.53;;
71963;SDS011;59834;52.124;5.422;2023-05-23T03:57:51;17.05;;;4.28;;
71963;SDS011;59834;52.124;5.422;2023-05-23T04:00:19;25.55;;;5.18;;
71963;SDS011;59834;52.124;5.422;2023-05-23T04:02:47;20.53;;;4.73;;
71963;SDS011;59834;52.124;5.422;2023-05-23T04:05:17;14.20;;;3.58;;
71963;SDS011;59834;52.124;5.422;2023-05-23T04:07:44;13.15;;;3.78;;
71963;SDS011;59834;52.124;5.422;2023-05-23T04:10:12;15.00;;;4.30;;
71963;SDS011;59834;52.124;5.422;2023-05-23T04:12:39;11.20;;;3.83;;
71963;SDS011;59834;52.124;5.422;2023-05-23T04:15:07;12.53;;;3.83;;
71963;SDS011;59834;52.124;5.422;2023-05-23T04:17:34;15.32;;;3.75;;
71963;SDS011;59834;52.124;5.422;2023-05-23T04:20:07;9.02;;;3.60;;
71963;SDS011;59834;52.124;5.422;2023-05-23T04:22:37;14.07;;;3.38;;
71963;SDS011;59834;52.124;5.422;2023-05-23T04:25:09;16.25;;;3.72;;
71963;SDS011;59834;52.124;5.422;2023-05-23T04:27:38;16.47;;;3.60;;
71963;SDS011;59834;52.124;5.422;2023-05-23T04:30:06;9.75;;;2.97;;
71963;SDS011;59834;52.124;5.422;2023-05-23T04:32:35;13.02;;;2.67;;
71963;SDS011;59834;52.124;5.422;2023-05-23T04:35:03;8.63;;;2.20;;
71963;SDS011;59834;52.124;5.422;2023-05-23T04:37:32;19.38;;;2.83;;
71963;SDS011;59834;52.124;5.422;2023-05-23T04:39:59;9.50;;;2.20;;
71963;SDS011;59834;52.124;5.422;2023-05-23T04:42:26;11.23;;;1.55;;
71963;SDS011;59834;52.124;5.422;2023-05-23T04:44:54;11.95;;;1.92;;
71963;SDS011;59834;52.124;5.422;2023-05-23T04:47:29;9.68;;;1.70;;
71963;SDS011;59834;52.124;5.422;2023-05-23T04:50:03;6.60;;;1.58;;
71963;SDS011;59834;52.124;5.422;2023-05-23T04:52:32;8.83;;;1.63;;
71963;SDS011;59834;52.124;5.422;2023-05-23T04:54:59;9.27;;;2.10;;
71963;SDS011;59834;52.124;5.422;2023-05-23T04:57:28;9.07;;;1.75;;
71963;SDS011;59834;52.124;5.422;2023-05-23T04:59:59;15.95;;;1.65;;
71963;SDS011;59834;52.124;5.422;2023-05-23T05:02:27;9.77;;;1.60;;
71963;SDS011;59834;52.124;5.422;2023-05-23T05:04:54;12.00;;;1.50;;
71963;SDS011;59834;52.124;5.422;2023-05-23T05:07:21;13.77;;;1.90;;
71963;SDS011;59834;52.124;5.422;2023-05-23T05:09:47;5.70;;;1.38;;
71963;SDS011;59834;52.124;5.422;2023-05-23T05:12:18;9.20;;;2.13;;
71963;SDS011;59834;52.124;5.422;2023-05-23T05:14:46;12.48;;;1.77;;
71963;SDS011;59834;52.124;5.422;2023-05-23T05:17:14;9.60;;;1.77;;
71963;SDS011;59834;52.124;5.422;2023-05-23T05:19:42;9.68;;;1.85;;
71963;SDS011;59834;52.124;5.422;2023-05-23T05:22:09;8.40;;;1.98;;
71963;SDS011;59834;52.124;5.422;2023-05-23T05:24:39;17.02;;;2.80;;
71963;SDS011;59834;52.124;5.422;2023-05-23T05:27:13;7.95;;;1.35;;
71963;SDS011;59834;52.124;5.422;2023-05-23T05:29:42;9.07;;;1.50;;
71963;SDS011;59834;52.124;5.422;2023-05-23T05:32:11;6.78;;;1.70;;
71963;SDS011;59834;52.124;5.422;2023-05-23T05:34:41;8.30;;;2.20;;
71963;SDS011;59834;52.124;5.422;2023-05-23T05:37:12;8.02;;;1.95;;
71963;SDS011;59834;52.124;5.422;2023-05-23T05:39:41;13.93;;;2.70;;
71963;SDS011;59834;52.124;5.422;2023-05-23T05:42:10;8.73;;;1.63;;
71963;SDS011;59834;52.124;5.422;2023-05-23T05:44:40;16.02;;;2.30;;
71963;SDS011;59834;52.124;5.422;2023-05-23T05:47:07;8.75;;;1.63;;
71963;SDS011;59834;52.124;5.422;2023-05-23T05:49:37;10.52;;;1.88;;
71963;SDS011;59834;52.124;5.422;2023-05-23T05:52:05;8.55;;;2.03;;
71963;SDS011;59834;52.124;5.422;2023-05-23T05:54:33;11.23;;;2.07;;
71963;SDS011;59834;52.124;5.422;2023-05-23T05:57:00;11.70;;;2.55;;
71963;SDS011;59834;52.124;5.422;2023-05-23T05:59:27;12.32;;;2.92;;
71963;SDS011;59834;52.124;5.422;2023-05-23T06:01:59;10.13;;;1.98;;
71963;SDS011;59834;52.124;5.422;2023-05-23T06:04:27;9.82;;;2.30;;
71963;SDS011;59834;52.124;5.422;2023-05-23T06:06:55;11.80;;;2.43;;
71963;SDS011;59834;52.124;5.422;2023-05-23T06:09:23;9.85;;;2.17;;
71963;SDS011;59834;52.124;5.422;2023-05-23T06:11:55;8.27;;;2.30;;
71963;SDS011;59834;52.124;5.422;2023-05-23T06:14:27;8.82;;;2.28;;
71963;SDS011;59834;52.124;5.422;2023-05-23T06:16:54;9.60;;;2.35;;
71963;SDS011;59834;52.124;5.422;2023-05-23T06:19:23;9.73;;;2.30;;
71963;SDS011;59834;52.124;5.422;2023-05-23T06:21:53;8.18;;;2.30;;
71963;SDS011;59834;52.124;5.422;2023-05-23T06:24:20;9.35;;;3.03;;
71963;SDS011;59834;52.124;5.422;2023-05-23T06:26:48;9.23;;;2.88;;
71963;SDS011;59834;52.124;5.422;2023-05-23T06:29:16;7.55;;;2.03;;
71963;SDS011;59834;52.124;5.422;2023-05-23T06:31:48;6.80;;;2.30;;
71963;SDS011;59834;52.124;5.422;2023-05-23T06:34:17;8.10;;;2.72;;
71963;SDS011;59834;52.124;5.422;2023-05-23T06:36:46;8.02;;;2.72;;
71963;SDS011;59834;52.124;5.422;2023-05-23T06:39:14;11.18;;;2.80;;
71963;SDS011;59834;52.124;5.422;2023-05-23T06:41:41;7.40;;;2.72;;
71963;SDS011;59834;52.124;5.422;2023-05-23T06:44:08;10.93;;;2.50;;
71963;SDS011;59834;52.124;5.422;2023-05-23T06:46:35;7.88;;;3.20;;
71963;SDS011;59834;52.124;5.422;2023-05-23T06:49:08;5.15;;;2.10;;
71963;SDS011;59834;52.124;5.422;2023-05-23T06:51:40;12.55;;;2.47;;
71963;SDS011;59834;52.124;5.422;2023-05-23T06:54:11;6.40;;;1.90;;
71963;SDS011;59834;52.124;5.422;2023-05-23T06:56:40;8.23;;;2.10;;
71963;SDS011;59834;52.124;5.422;2023-05-23T06:59:07;4.50;;;1.58;;
71963;SDS011;59834;52.124;5.422;2023-05-23T07:01:36;7.68;;;1.30;;
71963;SDS011;59834;52.124;5.422;2023-05-23T07:04:02;4.75;;;1.45;;
71963;SDS011;59834;52.124;5.422;2023-05-23T07:06:29;6.35;;;1.58;;
71963;SDS011;59834;52.124;5.422;2023-05-23T07:08:59;8.97;;;1.33;;
71963;SDS011;59834;52.124;5.422;2023-05-23T07:11:26;6.63;;;1.17;;
71963;SDS011;59834;52.124;5.422;2023-05-23T07:13:52;8.00;;;1.02;;
71963;SDS011;59834;52.124;5.422;2023-05-23T07:16:21;9.90;;;1.23;;
71963;SDS011;59834;52.124;5.422;2023-05-23T07:18:50;7.53;;;1.17;;
71963;SDS011;59834;52.124;5.422;2023-05-23T07:21:18;9.47;;;0.60;;
71963;SDS011;59834;52.124;5.422;2023-05-23T07:23:48;11.95;;;1.10;;
71963;SDS011;59834;52.124;5.422;2023-05-23T07:26:16;9.30;;;2.47;;
71963;SDS011;59834;52.124;5.422;2023-05-23T07:28:42;9.30;;;0.82;;
71963;SDS011;59834;52.124;5.422;2023-05-23T07:31:09;12.50;;;0.80;;
71963;SDS011;59834;52.124;5.422;2023-05-23T07:33:39;8.23;;;1.10;;
71963;SDS011;59834;52.124;5.422;2023-05-23T07:36:05;7.97;;;1.10;;
71963;SDS011;59834;52.124;5.422;2023-05-23T07:38:33;6.65;;;0.90;;
71963;SDS011;59834;52.124;5.422;2023-05-23T07:40:59;11.27;;;0.85;;
71963;SDS011;59834;52.124;5.422;2023-05-23T07:43:36;10.00;;;1.23;;
71963;SDS011;59834;52.124;5.422;2023-05-23T07:46:04;10.40;;;1.00;;
71963;SDS011;59834;52.124;5.422;2023-05-23T07:48:33;13.65;;;1.33;;
71963;SDS011;59834;52.124;5.422;2023-05-23T07:51:03;9.82;;;0.85;;
71963;SDS011;59834;52.124;5.422;2023-05-23T07:53:30;12.45;;;1.00;;
71963;SDS011;59834;52.124;5.422;2023-05-23T07:55:57;7.43;;;0.98;;
71963;SDS011;59834;52.124;5.422;2023-05-23T07:58:37;8.97;;;1.60;;
71963;SDS011;59834;52.124;5.422;2023-05-23T08:01:04;8.20;;;0.95;;
71963;SDS011;59834;52.124;5.422;2023-05-23T08:03:31;7.10;;;1.23;;
71963;SDS011;59834;52.124;5.422;2023-05-23T08:05:58;8.68;;;1.05;;
71963;SDS011;59834;52.124;5.422;2023-05-23T08:08:25;6.95;;;0.95;;
71963;SDS011;59834;52.124;5.422;2023-05-23T08:10:52;6.10;;;0.73;;
71963;SDS011;59834;52.124;5.422;2023-05-23T08:13:19;7.47;;;0.70;;
71963;SDS011;59834;52.124;5.422;2023-05-23T08:15:46;14.68;;;2.65;;
71963;SDS011;59834;52.124;5.422;2023-05-23T08:18:13;9.70;;;0.65;;
71963;SDS011;59834;52.124;5.422;2023-05-23T08:20:40;8.40;;;1.02;;
71963;SDS011;59834;52.124;5.422;2023-05-23T08:23:07;9.13;;;0.60;;
71963;SDS011;59834;52.124;5.422;2023-05-23T08:25:34;11.65;;;1.20;;
71963;SDS011;59834;52.124;5.422;2023-05-23T08:28:01;5.72;;;0.85;;
71963;SDS011;59834;52.124;5.422;2023-05-23T08:30:31;12.32;;;1.75;;
71963;SDS011;59834;52.124;5.422;2023-05-23T08:33:00;9.07;;;0.90;;
71963;SDS011;59834;52.124;5.422;2023-05-23T08:35:30;12.27;;;0.60;;
71963;SDS011;59834;52.124;5.422;2023-05-23T08:38:04;11.98;;;1.90;;
71963;SDS011;59834;52.124;5.422;2023-05-23T08:40:40;13.95;;;0.98;;
71963;SDS011;59834;52.124;5.422;2023-05-23T08:43:18;9.48;;;0.52;;
71963;SDS011;59834;52.124;5.422;2023-05-23T08:45:49;8.90;;;1.00;;
71963;SDS011;59834;52.124;5.422;2023-05-23T08:48:18;12.00;;;1.17;;
71963;SDS011;59834;52.124;5.422;2023-05-23T08:50:46;4.80;;;0.98;;
71963;SDS011;59834;52.124;5.422;2023-05-23T08:53:15;8.15;;;1.15;;
71963;SDS011;59834;52.124;5.422;2023-05-23T08:55:46;10.68;;;1.27;;
71963;SDS011;59834;52.124;5.422;2023-05-23T08:58:14;8.43;;;0.80;;
71963;SDS011;59834;52.124;5.422;2023-05-23T09:00:41;7.17;;;1.10;;
71963;SDS011;59834;52.124;5.422;2023-05-23T09:03:09;9.25;;;1.00;;
71963;SDS011;59834;52.124;5.422;2023-05-23T09:05:40;10.52;;;2.00;;
71963;SDS011;59834;52.124;5.422;2023-05-23T09:08:13;11.73;;;1.20;;
71963;SDS011;59834;52.124;5.422;2023-05-23T09:10:41;12.50;;;1.50;;
71963;SDS011;59834;52.124;5.422;2023-05-23T09:13:14;14.53;;;1.23;;
71963;SDS011;59834;52.124;5.422;2023-05-23T09:16:02;12.77;;;1.20;;
71963;SDS011;59834;52.124;5.422;2023-05-23T09:18:39;4.82;;;0.88;;
71963;SDS011;59834;52.124;5.422;2023-05-23T09:21:08;7.38;;;1.20;;
71963;SDS011;59834;52.124;5.422;2023-05-23T09:23:39;9.25;;;1.02;;
71963;SDS011;59834;52.124;5.422;2023-05-23T09:26:07;8.37;;;0.90;;
71963;SDS011;59834;52.124;5.422;2023-05-23T09:28:41;9.55;;;0.90;;
71963;SDS011;59834;52.124;5.422;2023-05-23T09:31:16;9.15;;;1.27;;
71963;SDS011;59834;52.124;5.422;2023-05-23T09:34:07;8.43;;;0.85;;
71963;SDS011;59834;52.124;5.422;2023-05-23T09:36:36;9.85;;;0.93;;
71963;SDS011;59834;52.124;5.422;2023-05-23T09:39:10;7.67;;;1.07;;
71963;SDS011;59834;52.124;5.422;2023-05-23T09:41:37;12.18;;;1.63;;
71963;SDS011;59834;52.124;5.422;2023-05-23T09:44:08;10.30;;;1.85;;
71963;SDS011;59834;52.124;5.422;2023-05-23T09:46:38;8.40;;;1.13;;
71963;SDS011;59834;52.124;5.422;2023-05-23T09:49:25;9.38;;;0.82;;
71963;SDS011;59834;52.124;5.422;2023-05-23T09:51:56;4.17;;;0.67;;
71963;SDS011;59834;52.124;5.422;2023-05-23T09:54:25;9.95;;;0.70;;
71963;SDS011;59834;52.124;5.422;2023-05-23T09:56:52;6.70;;;0.90;;
71963;SDS011;59834;52.124;5.422;2023-05-23T09:59:27;8.65;;;0.93;;
71963;SDS011;59834;52.124;5.422;2023-05-23T10:01:58;4.95;;;0.65;;
71963;SDS011;59834;52.124;5.422;2023-05-23T10:04:30;11.20;;;0.93;;
71963;SDS011;59834;52.124;5.422;2023-05-23T10:07:00;12.10;;;0.98;;
71963;SDS011;59834;52.124;5.422;2023-05-23T10:09:43;10.10;;;0.85;;
71963;SDS011;59834;52.124;5.422;2023-05-23T10:15:03;5.57;;;0.70;;
71963;SDS011;59834;52.124;5.422;2023-05-23T10:20:03;3.70;;;0.60;;
71963;SDS011;59834;52.124;5.422;2023-05-23T10:22:35;8.10;;;0.70;;
71963;SDS011;59834;52.124;5.422;2023-05-23T10:25:04;11.48;;;1.25;;
71963;SDS011;59834;52.124;5.422;2023-05-23T10:27:38;8.38;;;0.77;;
71963;SDS011;59834;52.124;5.422;2023-05-23T10:30:08;8.90;;;1.53;;
71963;SDS011;59834;52.124;5.422;2023-05-23T10:32:37;4.70;;;0.70;;
71963;SDS011;59834;52.124;5.422;2023-05-23T10:35:22;15.02;;;2.15;;
71963;SDS011;59834;52.124;5.422;2023-05-23T10:42:06;7.35;;;0.70;;
71963;SDS011;59834;52.124;5.422;2023-05-23T10:46:53;4.53;;;0.63;;
71963;SDS011;59834;52.124;5.422;2023-05-23T10:49:39;6.22;;;0.70;;
71963;SDS011;59834;52.124;5.422;2023-05-23T10:52:13;5.15;;;0.90;;
71963;SDS011;59834;52.124;5.422;2023-05-23T10:54:46;8.70;;;1.25;;
71963;SDS011;59834;52.124;5.422;2023-05-23T10:57:20;7.37;;;0.70;;
71963;SDS011;59834;52.124;5.422;2023-05-23T10:59:50;9.88;;;1.10;;
71963;SDS011;59834;52.124;5.422;2023-05-23T11:02:24;5.25;;;0.82;;
71963;SDS011;59834;52.124;5.422;2023-05-23T11:08:22;6.18;;;1.45;;
71963;SDS011;59834;52.124;5.422;2023-05-23T11:11:08;9.07;;;0.70;;
71963;SDS011;59834;52.124;5.422;2023-05-23T11:13:55;9.48;;;0.80;;
71963;SDS011;59834;52.124;5.422;2023-05-23T11:16:29;5.78;;;0.95;;
71963;SDS011;59834;52.124;5.422;2023-05-23T11:19:19;8.68;;;0.45;;
71963;SDS011;59834;52.124;5.422;2023-05-23T11:24:49;7.03;;;0.53;;
71963;SDS011;59834;52.124;5.422;2023-05-23T11:27:33;10.80;;;1.77;;
71963;SDS011;59834;52.124;5.422;2023-05-23T11:32:40;8.85;;;0.60;;
71963;SDS011;59834;52.124;5.422;2023-05-23T11:35:09;7.22;;;0.68;;
71963;SDS011;59834;52.124;5.422;2023-05-23T11:37:37;5.37;;;0.83;;
71963;SDS011;59834;52.124;5.422;2023-05-23T11:43:14;12.20;;;1.25;;
71963;SDS011;59834;52.124;5.422;2023-05-23T11:45:43;9.07;;;0.80;;
71963;SDS011;59834;52.124;5.422;2023-05-23T11:48:16;7.22;;;1.00;;
71963;SDS011;59834;52.124;5.422;2023-05-23T11:53:11;10.48;;;1.00;;
71963;SDS011;59834;52.124;5.422;2023-05-23T11:55:51;7.88;;;0.70;;
71963;SDS011;59834;52.124;5.422;2023-05-23T11:58:33;7.05;;;0.60;;
71963;SDS011;59834;52.124;5.422;2023-05-23T12:01:04;5.55;;;0.50;;
71963;SDS011;59834;52.124;5.422;2023-05-23T12:03:45;9.07;;;0.70;;
71963;SDS011;59834;52.124;5.422;2023-05-23T12:06:14;5.60;;;1.05;;
71963;SDS011;59834;52.124;5.422;2023-05-23T12:08:47;7.05;;;1.30;;
71963;SDS011;59834;52.124;5.422;2023-05-23T12:11:15;7.28;;;0.98;;
71963;SDS011;59834;52.124;5.422;2023-05-23T12:13:44;4.53;;;0.77;;
71963;SDS011;59834;52.124;5.422;2023-05-23T12:16:12;5.00;;;0.40;;
71963;SDS011;59834;52.124;5.422;2023-05-23T12:18:40;8.80;;;0.90;;
71963;SDS011;59834;52.124;5.422;2023-05-23T12:21:08;5.40;;;0.77;;
71963;SDS011;59834;52.124;5.422;2023-05-23T12:23:35;11.98;;;0.70;;
71963;SDS011;59834;52.124;5.422;2023-05-23T12:26:09;2.97;;;0.68;;
71963;SDS011;59834;52.124;5.422;2023-05-23T12:28:39;10.60;;;0.50;;
71963;SDS011;59834;52.124;5.422;2023-05-23T12:31:15;5.97;;;1.15;;
71963;SDS011;59834;52.124;5.422;2023-05-23T12:33:43;4.43;;;0.47;;
71963;SDS011;59834;52.124;5.422;2023-05-23T12:36:19;6.10;;;0.85;;
71963;SDS011;59834;52.124;5.422;2023-05-23T12:38:48;8.02;;;0.80;;
71963;SDS011;59834;52.124;5.422;2023-05-23T12:41:15;7.10;;;0.83;;
71963;SDS011;59834;52.124;5.422;2023-05-23T12:43:48;4.85;;;0.73;;
71963;SDS011;59834;52.124;5.422;2023-05-23T12:46:18;5.53;;;0.75;;
71963;SDS011;59834;52.124;5.422;2023-05-23T12:48:51;5.50;;;0.60;;
71963;SDS011;59834;52.124;5.422;2023-05-23T12:51:18;3.67;;;0.45;;
71963;SDS011;59834;52.124;5.422;2023-05-23T12:53:47;9.17;;;1.00;;
71963;SDS011;59834;52.124;5.422;2023-05-23T12:56:14;8.98;;;1.27;;
71963;SDS011;59834;52.124;5.422;2023-05-23T12:58:41;5.30;;;0.77;;
71963;SDS011;59834;52.124;5.422;2023-05-23T13:01:09;8.93;;;0.90;;
71963;SDS011;59834;52.124;5.422;2023-05-23T13:03:36;7.28;;;0.68;;
71963;SDS011;59834;52.124;5.422;2023-05-23T13:06:05;8.40;;;0.60;;
71963;SDS011;59834;52.124;5.422;2023-05-23T13:08:33;9.63;;;1.35;;
71963;SDS011;59834;52.124;5.422;2023-05-23T13:11:01;10.20;;;1.05;;
71963;SDS011;59834;52.124;5.422;2023-05-23T13:13:30;10.55;;;1.00;;
71963;SDS011;59834;52.124;5.422;2023-05-23T13:15:59;9.57;;;0.60;;
71963;SDS011;59834;52.124;5.422;2023-05-23T13:18:26;5.47;;;0.77;;
71963;SDS011;59834;52.124;5.422;2023-05-23T13:20:53;8.60;;;0.85;;
71963;SDS011;59834;52.124;5.422;2023-05-23T13:23:20;8.55;;;1.30;;
71963;SDS011;59834;52.124;5.422;2023-05-23T13:25:49;7.63;;;0.45;;
71963;SDS011;59834;52.124;5.422;2023-05-23T13:28:19;7.72;;;0.88;;
71963;SDS011;59834;52.124;5.422;2023-05-23T13:30:50;6.60;;;1.13;;
71963;SDS011;59834;52.124;5.422;2023-05-23T13:33:21;8.93;;;0.80;;
71963;SDS011;59834;52.124;5.422;2023-05-23T13:35:51;9.65;;;0.80;;
71963;SDS011;59834;52.124;5.422;2023-05-23T13:38:19;5.97;;;0.63;;
71963;SDS011;59834;52.124;5.422;2023-05-23T13:40:48;8.23;;;0.63;;
71963;SDS011;59834;52.124;5.422;2023-05-23T13:43:16;4.33;;;0.37;;
71963;SDS011;59834;52.124;5.422;2023-05-23T13:45:47;4.57;;;0.70;;
71963;SDS011;59834;52.124;5.422;2023-05-23T13:48:14;4.30;;;0.57;;
71963;SDS011;59834;52.124;5.422;2023-05-23T13:50:41;7.20;;;0.60;;
71963;SDS011;59834;52.124;5.422;2023-05-23T13:53:09;5.38;;;0.55;;
71963;SDS011;59834;52.124;5.422;2023-05-23T13:55:43;5.07;;;0.60;;
71963;SDS011;59834;52.124;5.422;2023-05-23T13:58:13;3.13;;;0.80;;
71963;SDS011;59834;52.124;5.422;2023-05-23T14:00:40;2.83;;;0.45;;
71963;SDS011;59834;52.124;5.422;2023-05-23T14:03:08;4.68;;;0.70;;
71963;SDS011;59834;52.124;5.422;2023-05-23T14:05:36;6.72;;;0.30;;
71963;SDS011;59834;52.124;5.422;2023-05-23T14:08:03;7.90;;;0.50;;
71963;SDS011;59834;52.124;5.422;2023-05-23T14:10:30;5.22;;;0.30;;
71963;SDS011;59834;52.124;5.422;2023-05-23T14:12:58;4.38;;;0.50;;
71963;SDS011;59834;52.124;5.422;2023-05-23T14:15:25;5.40;;;0.68;;
71963;SDS011;59834;52.124;5.422;2023-05-23T14:17:53;5.35;;;0.43;;
71963;SDS011;59834;52.124;5.422;2023-05-23T14:20:25;6.37;;;0.47;;
71963;SDS011;59834;52.124;5.422;2023-05-23T14:22:52;5.45;;;0.50;;
71963;SDS011;59834;52.124;5.422;2023-05-23T14:25:19;9.70;;;0.30;;
71963;SDS011;59834;52.124;5.422;2023-05-23T14:27:50;4.18;;;0.60;;
71963;SDS011;59834;52.124;5.422;2023-05-23T14:30:19;10.00;;;1.20;;
71963;SDS011;59834;52.124;5.422;2023-05-23T14:32:52;4.70;;;0.90;;
71963;SDS011;59834;52.124;5.422;2023-05-23T14:35:22;12.20;;;1.10;;
71963;SDS011;59834;52.124;5.422;2023-05-23T14:37:52;4.00;;;0.30;;
71963;SDS011;59834;52.124;5.422;2023-05-23T14:40:20;5.63;;;0.57;;
71963;SDS011;59834;52.124;5.422;2023-05-23T14:42:49;11.13;;;0.73;;
71963;SDS011;59834;52.124;5.422;2023-05-23T14:45:21;4.67;;;0.57;;
71963;SDS011;59834;52.124;5.422;2023-05-23T14:47:55;6.20;;;0.50;;
71963;SDS011;59834;52.124;5.422;2023-05-23T14:50:25;3.17;;;0.47;;
71963;SDS011;59834;52.124;5.422;2023-05-23T14:52:52;7.75;;;0.98;;
71963;SDS011;59834;52.124;5.422;2023-05-23T14:55:21;6.25;;;0.60;;
71963;SDS011;59834;52.124;5.422;2023-05-23T14:57:55;11.73;;;1.00;;
71963;SDS011;59834;52.124;5.422;2023-05-23T15:00:23;6.07;;;0.60;;
71963;SDS011;59834;52.124;5.422;2023-05-23T15:02:50;9.05;;;0.75;;
71963;SDS011;59834;52.124;5.422;2023-05-23T15:05:17;8.30;;;0.50;;
71963;SDS011;59834;52.124;5.422;2023-05-23T15:07:44;9.05;;;0.52;;
71963;SDS011;59834;52.124;5.422;2023-05-23T15:10:14;7.23;;;0.43;;
71963;SDS011;59834;52.124;5.422;2023-05-23T15:12:44;4.03;;;0.40;;
71963;SDS011;59834;52.124;5.422;2023-05-23T15:15:11;4.00;;;0.45;;
71963;SDS011;59834;52.124;5.422;2023-05-23T15:17:38;6.53;;;0.40;;
71963;SDS011;59834;52.124;5.422;2023-05-23T15:20:07;3.08;;;0.47;;
71963;SDS011;59834;52.124;5.422;2023-05-23T15:22:39;14.33;;;2.43;;
71963;SDS011;59834;52.124;5.422;2023-05-23T15:25:08;2.58;;;0.30;;
71963;SDS011;59834;52.124;5.422;2023-05-23T15:27:38;3.42;;;0.40;;